sensor_id;sensor_type;location;lat;lon;timestamp;P1;durP1;ratioP1;P2;durP2;ratioP2
67092;SDS011;54011;50.772;7.730;2023-06-10T00:00:12;8.68;;;6.20;;
67092;SDS011;54011;50.772;7.730;2023-06-10T00:02:41;11.13;;;6.28;;
67092;SDS011;54011;50.772;7.730;2023-06-10T00:05:08;11.23;;;6.45;;
67092;SDS011;54011;50.772;7.730;2023-06-10T00:07:35;9.10;;;6.10;;
67092;SDS011;54011;50.772;7.730;2023-06-10T00:10:04;9.65;;;5.88;;
67092;SDS011;54011;50.772;7.730;2023-06-10T00:12:30;8.98;;;6.20;;
67092;SDS011;54011;50.772;7.730;2023-06-10T00:15:02;11.02;;;5.95;;
67092;SDS011;54011;50.772;7.730;2023-06-10T00:17:29;8.55;;;6.38;;
67092;SDS011;54011;50.772;7.730;2023-06-10T00:19:56;14.02;;;6.18;;
67092;SDS011;54011;50.772;7.730;2023-06-10T00:22:22;10.77;;;6.50;;
67092;SDS011;54011;50.772;7.730;2023-06-10T00:24:49;10.68;;;6.38;;
67092;SDS011;54011;50.772;7.730;2023-06-10T00:27:16;8.55;;;5.95;;
67092;SDS011;54011;50.772;7.730;2023-06-10T00:29:41;14.52;;;6.38;;
67092;SDS011;54011;50.772;7.730;2023-06-10T00:32:08;12.88;;;6.35;;
67092;SDS011;54011;50.772;7.730;2023-06-10T00:34:34;11.27;;;6.47;;
67092;SDS011;54011;50.772;7.730;2023-06-10T00:37:00;10.15;;;6.20;;
67092;SDS011;54011;50.772;7.730;2023-06-10T00:39:26;9.82;;;6.03;;
67092;SDS011;54011;50.772;7.730;2023-06-10T00:41:52;12.40;;;6.20;;
67092;SDS011;54011;50.772;7.730;2023-06-10T00:44:17;10.50;;;6.07;;
67092;SDS011;54011;50.772;7.730;2023-06-10T00:46:43;9.20;;;6.13;;
67092;SDS011;54011;50.772;7.730;2023-06-10T00:49:09;10.80;;;6.28;;
67092;SDS011;54011;50.772;7.730;2023-06-10T00:51:36;9.10;;;6.25;;
67092;SDS011;54011;50.772;7.730;2023-06-10T00:54:01;11.23;;;6.75;;
67092;SDS011;54011;50.772;7.730;2023-06-10T00:56:28;10.98;;;6.78;;
67092;SDS011;54011;50.772;7.730;2023-06-10T00:58:54;8.98;;;6.50;;
67092;SDS011;54011;50.772;7.730;2023-06-10T01:01:19;12.32;;;6.60;;
67092;SDS011;54011;50.772;7.730;2023-06-10T01:03:45;10.25;;;6.43;;
67092;SDS011;54011;50.772;7.730;2023-06-10T01:08:46;8.80;;;6.37;;
67092;SDS011;54011;50.772;7.730;2023-06-10T01:11:36;12.23;;;6.32;;
67092;SDS011;54011;50.772;7.730;2023-06-10T01:14:02;9.07;;;6.60;;
67092;SDS011;54011;50.772;7.730;2023-06-10T01:16:30;13.40;;;6.70;;
67092;SDS011;54011;50.772;7.730;2023-06-10T01:18:56;10.98;;;7.03;;
67092;SDS011;54011;50.772;7.730;2023-06-10T01:21:24;9.55;;;6.50;;
67092;SDS011;54011;50.772;7.730;2023-06-10T01:23:51;11.45;;;6.70;;
67092;SDS011;54011;50.772;7.730;2023-06-10T01:26:18;10.82;;;6.30;;
67092;SDS011;54011;50.772;7.730;2023-06-10T01:28:51;12.23;;;7.18;;
67092;SDS011;54011;50.772;7.730;2023-06-10T01:31:49;14.48;;;7.45;;
67092;SDS011;54011;50.772;7.730;2023-06-10T01:34:39;8.25;;;6.38;;
67092;SDS011;54011;50.772;7.730;2023-06-10T01:37:08;9.45;;;6.38;;
67092;SDS011;54011;50.772;7.730;2023-06-10T01:42:04;9.50;;;6.70;;
67092;SDS011;54011;50.772;7.730;2023-06-10T01:44:31;12.00;;;7.13;;
67092;SDS011;54011;50.772;7.730;2023-06-10T01:46:57;9.75;;;6.97;;
67092;SDS011;54011;50.772;7.730;2023-06-10T01:49:23;10.95;;;6.82;;
67092;SDS011;54011;50.772;7.730;2023-06-10T01:51:51;11.70;;;6.90;;
67092;SDS011;54011;50.772;7.730;2023-06-10T01:54:17;10.60;;;7.00;;
67092;SDS011;54011;50.772;7.730;2023-06-10T01:56:45;9.30;;;6.38;;
67092;SDS011;54011;50.772;7.730;2023-06-10T01:59:10;18.17;;;6.75;;
67092;SDS011;54011;50.772;7.730;2023-06-10T02:01:36;9.40;;;7.30;;
67092;SDS011;54011;50.772;7.730;2023-06-10T02:04:02;9.38;;;7.00;;
67092;SDS011;54011;50.772;7.730;2023-06-10T02:06:30;10.90;;;6.70;;
67092;SDS011;54011;50.772;7.730;2023-06-10T02:08:56;11.75;;;7.03;;
67092;SDS011;54011;50.772;7.730;2023-06-10T02:11:22;13.73;;;7.25;;
67092;SDS011;54011;50.772;7.730;2023-06-10T02:13:48;12.25;;;7.03;;
67092;SDS011;54011;50.772;7.730;2023-06-10T02:16:13;11.13;;;7.22;;
67092;SDS011;54011;50.772;7.730;2023-06-10T02:18:42;11.88;;;7.15;;
67092;SDS011;54011;50.772;7.730;2023-06-10T02:21:08;9.95;;;7.45;;
67092;SDS011;54011;50.772;7.730;2023-06-10T02:23:34;12.35;;;7.50;;
67092;SDS011;54011;50.772;7.730;2023-06-10T02:26:03;11.57;;;7.10;;
67092;SDS011;54011;50.772;7.730;2023-06-10T02:28:29;11.20;;;7.22;;
67092;SDS011;54011;50.772;7.730;2023-06-10T02:30:57;11.93;;;7.10;;
67092;SDS011;54011;50.772;7.730;2023-06-10T02:33:24;14.80;;;6.88;;
67092;SDS011;54011;50.772;7.730;2023-06-10T02:35:50;12.32;;;7.10;;
67092;SDS011;54011;50.772;7.730;2023-06-10T02:38:16;9.75;;;7.05;;
67092;SDS011;54011;50.772;7.730;2023-06-10T02:40:42;11.80;;;7.18;;
67092;SDS011;54011;50.772;7.730;2023-06-10T02:43:09;12.07;;;7.00;;
67092;SDS011;54011;50.772;7.730;2023-06-10T02:45:35;10.55;;;7.03;;
67092;SDS011;54011;50.772;7.730;2023-06-10T02:48:02;12.63;;;7.32;;
67092;SDS011;54011;50.772;7.730;2023-06-10T02:50:29;10.95;;;7.18;;
67092;SDS011;54011;50.772;7.730;2023-06-10T02:53:13;10.98;;;7.30;;
67092;SDS011;54011;50.772;7.730;2023-06-10T02:55:44;10.85;;;6.53;;
67092;SDS011;54011;50.772;7.730;2023-06-10T02:58:12;10.55;;;7.25;;
67092;SDS011;54011;50.772;7.730;2023-06-10T03:00:39;12.07;;;6.97;;
67092;SDS011;54011;50.772;7.730;2023-06-10T03:03:07;10.75;;;6.65;;
67092;SDS011;54011;50.772;7.730;2023-06-10T03:05:42;13.25;;;7.18;;
67092;SDS011;54011;50.772;7.730;2023-06-10T03:08:07;10.23;;;6.90;;
67092;SDS011;54011;50.772;7.730;2023-06-10T03:10:37;10.55;;;7.35;;
67092;SDS011;54011;50.772;7.730;2023-06-10T03:13:03;8.57;;;6.80;;
67092;SDS011;54011;50.772;7.730;2023-06-10T03:15:29;10.52;;;7.05;;
67092;SDS011;54011;50.772;7.730;2023-06-10T03:17:58;11.60;;;7.07;;
67092;SDS011;54011;50.772;7.730;2023-06-10T03:20:25;11.85;;;7.78;;
67092;SDS011;54011;50.772;7.730;2023-06-10T03:22:52;9.60;;;6.97;;
67092;SDS011;54011;50.772;7.730;2023-06-10T03:25:18;10.88;;;7.53;;
67092;SDS011;54011;50.772;7.730;2023-06-10T03:27:48;13.65;;;7.82;;
67092;SDS011;54011;50.772;7.730;2023-06-10T03:30:14;10.32;;;6.65;;
67092;SDS011;54011;50.772;7.730;2023-06-10T03:32:41;10.05;;;6.90;;
67092;SDS011;54011;50.772;7.730;2023-06-10T03:35:09;11.27;;;7.32;;
67092;SDS011;54011;50.772;7.730;2023-06-10T03:37:36;9.77;;;7.05;;
67092;SDS011;54011;50.772;7.730;2023-06-10T03:40:03;9.50;;;7.53;;
67092;SDS011;54011;50.772;7.730;2023-06-10T03:42:32;10.10;;;7.18;;
67092;SDS011;54011;50.772;7.730;2023-06-10T03:44:58;10.88;;;7.47;;
67092;SDS011;54011;50.772;7.730;2023-06-10T03:47:26;14.80;;;7.78;;
67092;SDS011;54011;50.772;7.730;2023-06-10T03:49:52;11.00;;;7.40;;
67092;SDS011;54011;50.772;7.730;2023-06-10T03:52:18;8.90;;;7.03;;
67092;SDS011;54011;50.772;7.730;2023-06-10T03:54:44;10.93;;;7.47;;
67092;SDS011;54011;50.772;7.730;2023-06-10T03:57:10;10.68;;;7.53;;
67092;SDS011;54011;50.772;7.730;2023-06-10T03:59:36;10.73;;;7.75;;
67092;SDS011;54011;50.772;7.730;2023-06-10T04:02:01;10.02;;;7.18;;
67092;SDS011;54011;50.772;7.730;2023-06-10T04:04:27;14.65;;;7.57;;
67092;SDS011;54011;50.772;7.730;2023-06-10T04:06:55;13.15;;;7.85;;
67092;SDS011;54011;50.772;7.730;2023-06-10T04:09:21;10.20;;;6.97;;
67092;SDS011;54011;50.772;7.730;2023-06-10T04:11:48;13.02;;;7.43;;
67092;SDS011;54011;50.772;7.730;2023-06-10T04:14:14;9.07;;;6.72;;
67092;SDS011;54011;50.772;7.730;2023-06-10T04:16:41;10.95;;;6.88;;
67092;SDS011;54011;50.772;7.730;2023-06-10T04:19:09;10.88;;;7.18;;
67092;SDS011;54011;50.772;7.730;2023-06-10T04:21:35;12.13;;;6.85;;
67092;SDS011;54011;50.772;7.730;2023-06-10T04:24:01;11.00;;;6.97;;
67092;SDS011;54011;50.772;7.730;2023-06-10T04:26:27;11.52;;;6.85;;
67092;SDS011;54011;50.772;7.730;2023-06-10T04:28:53;10.02;;;6.72;;
67092;SDS011;54011;50.772;7.730;2023-06-10T04:31:18;9.68;;;6.88;;
67092;SDS011;54011;50.772;7.730;2023-06-10T04:33:46;12.13;;;6.93;;
67092;SDS011;54011;50.772;7.730;2023-06-10T04:36:13;10.35;;;7.00;;
67092;SDS011;54011;50.772;7.730;2023-06-10T04:38:39;9.38;;;6.93;;
67092;SDS011;54011;50.772;7.730;2023-06-10T04:41:06;10.90;;;6.82;;
67092;SDS011;54011;50.772;7.730;2023-06-10T04:43:34;9.25;;;6.32;;
67092;SDS011;54011;50.772;7.730;2023-06-10T04:46:00;9.73;;;6.32;;
67092;SDS011;54011;50.772;7.730;2023-06-10T04:48:27;9.25;;;6.40;;
67092;SDS011;54011;50.772;7.730;2023-06-10T04:50:54;9.35;;;6.40;;
67092;SDS011;54011;50.772;7.730;2023-06-10T04:53:21;12.57;;;8.05;;
67092;SDS011;54011;50.772;7.730;2023-06-10T04:55:46;10.73;;;7.07;;
67092;SDS011;54011;50.772;7.730;2023-06-10T04:58:13;9.68;;;6.28;;
67092;SDS011;54011;50.772;7.730;2023-06-10T05:00:39;9.85;;;5.97;;
67092;SDS011;54011;50.772;7.730;2023-06-10T05:03:05;8.93;;;6.53;;
67092;SDS011;54011;50.772;7.730;2023-06-10T05:05:30;9.27;;;6.45;;
67092;SDS011;54011;50.772;7.730;2023-06-10T05:07:55;10.68;;;6.30;;
67092;SDS011;54011;50.772;7.730;2023-06-10T05:10:22;10.65;;;6.35;;
67092;SDS011;54011;50.772;7.730;2023-06-10T05:12:48;10.38;;;6.38;;
67092;SDS011;54011;50.772;7.730;2023-06-10T05:15:14;9.10;;;6.18;;
67092;SDS011;54011;50.772;7.730;2023-06-10T05:17:40;9.70;;;6.10;;
67092;SDS011;54011;50.772;7.730;2023-06-10T05:20:06;10.27;;;5.85;;
67092;SDS011;54011;50.772;7.730;2023-06-10T05:22:33;10.38;;;6.13;;
67092;SDS011;54011;50.772;7.730;2023-06-10T05:24:59;9.10;;;5.97;;
67092;SDS011;54011;50.772;7.730;2023-06-10T05:27:26;11.05;;;5.97;;
67092;SDS011;54011;50.772;7.730;2023-06-10T05:29:52;12.80;;;6.45;;
67092;SDS011;54011;50.772;7.730;2023-06-10T05:32:18;9.93;;;5.68;;
67092;SDS011;54011;50.772;7.730;2023-06-10T05:34:43;11.00;;;6.07;;
67092;SDS011;54011;50.772;7.730;2023-06-10T05:37:09;7.35;;;5.40;;
67092;SDS011;54011;50.772;7.730;2023-06-10T05:39:37;9.80;;;5.75;;
67092;SDS011;54011;50.772;7.730;2023-06-10T05:42:04;10.25;;;5.68;;
67092;SDS011;54011;50.772;7.730;2023-06-10T05:44:31;11.88;;;5.45;;
67092;SDS011;54011;50.772;7.730;2023-06-10T05:46:58;7.30;;;5.13;;
67092;SDS011;54011;50.772;7.730;2023-06-10T05:49:24;9.63;;;5.30;;
67092;SDS011;54011;50.772;7.730;2023-06-10T05:51:50;11.20;;;5.32;;
67092;SDS011;54011;50.772;7.730;2023-06-10T05:54:18;10.75;;;5.00;;
67092;SDS011;54011;50.772;7.730;2023-06-10T05:56:43;7.60;;;5.10;;
67092;SDS011;54011;50.772;7.730;2023-06-10T05:59:10;7.95;;;4.90;;
67092;SDS011;54011;50.772;7.730;2023-06-10T06:01:36;8.48;;;5.07;;
67092;SDS011;54011;50.772;7.730;2023-06-10T06:04:02;8.77;;;5.07;;
67092;SDS011;54011;50.772;7.730;2023-06-10T06:06:28;8.73;;;5.05;;
67092;SDS011;54011;50.772;7.730;2023-06-10T06:08:54;8.68;;;4.90;;
67092;SDS011;54011;50.772;7.730;2023-06-10T06:11:19;8.82;;;4.70;;
67092;SDS011;54011;50.772;7.730;2023-06-10T06:13:47;7.00;;;4.43;;
67092;SDS011;54011;50.772;7.730;2023-06-10T06:16:13;9.75;;;4.90;;
67092;SDS011;54011;50.772;7.730;2023-06-10T06:18:41;6.85;;;4.32;;
67092;SDS011;54011;50.772;7.730;2023-06-10T06:21:08;10.38;;;4.90;;
67092;SDS011;54011;50.772;7.730;2023-06-10T06:23:34;10.13;;;4.65;;
67092;SDS011;54011;50.772;7.730;2023-06-10T06:26:00;9.40;;;5.07;;
67092;SDS011;54011;50.772;7.730;2023-06-10T06:28:25;8.93;;;4.88;;
67092;SDS011;54011;50.772;7.730;2023-06-10T06:30:55;8.55;;;5.00;;
67092;SDS011;54011;50.772;7.730;2023-06-10T06:33:22;9.43;;;4.57;;
67092;SDS011;54011;50.772;7.730;2023-06-10T06:35:47;9.52;;;4.60;;
67092;SDS011;54011;50.772;7.730;2023-06-10T06:38:13;9.20;;;4.53;;
67092;SDS011;54011;50.772;7.730;2023-06-10T06:40:39;8.52;;;4.57;;
67092;SDS011;54011;50.772;7.730;2023-06-10T06:43:06;7.10;;;4.40;;
67092;SDS011;54011;50.772;7.730;2023-06-10T06:45:54;9.07;;;4.57;;
67092;SDS011;54011;50.772;7.730;2023-06-10T06:48:19;8.98;;;4.57;;
67092;SDS011;54011;50.772;7.730;2023-06-10T06:50:45;6.82;;;4.60;;
67092;SDS011;54011;50.772;7.730;2023-06-10T06:53:14;6.97;;;4.50;;
67092;SDS011;54011;50.772;7.730;2023-06-10T06:55:40;7.57;;;4.40;;
67092;SDS011;54011;50.772;7.730;2023-06-10T06:58:06;7.65;;;4.60;;
67092;SDS011;54011;50.772;7.730;2023-06-10T07:00:32;7.82;;;4.32;;
67092;SDS011;54011;50.772;7.730;2023-06-10T07:02:58;7.97;;;4.35;;
67092;SDS011;54011;50.772;7.730;2023-06-10T07:05:25;9.25;;;4.47;;
67092;SDS011;54011;50.772;7.730;2023-06-10T07:07:53;7.85;;;4.05;;
67092;SDS011;54011;50.772;7.730;2023-06-10T07:10:21;7.80;;;4.32;;
67092;SDS011;54011;50.772;7.730;2023-06-10T07:12:49;8.13;;;4.38;;
67092;SDS011;54011;50.772;7.730;2023-06-10T07:15:15;10.90;;;4.63;;
67092;SDS011;54011;50.772;7.730;2023-06-10T07:17:41;7.40;;;4.40;;
67092;SDS011;54011;50.772;7.730;2023-06-10T07:20:06;8.50;;;4.25;;
67092;SDS011;54011;50.772;7.730;2023-06-10T07:22:32;8.75;;;4.93;;
67092;SDS011;54011;50.772;7.730;2023-06-10T07:24:58;12.68;;;4.43;;
67092;SDS011;54011;50.772;7.730;2023-06-10T07:27:24;8.13;;;4.60;;
67092;SDS011;54011;50.772;7.730;2023-06-10T07:29:50;8.25;;;4.40;;
67092;SDS011;54011;50.772;7.730;2023-06-10T07:32:16;10.98;;;4.35;;
67092;SDS011;54011;50.772;7.730;2023-06-10T07:34:42;9.52;;;4.22;;
67092;SDS011;54011;50.772;7.730;2023-06-10T07:37:07;9.07;;;4.20;;
67092;SDS011;54011;50.772;7.730;2023-06-10T07:39:33;8.00;;;4.60;;
67092;SDS011;54011;50.772;7.730;2023-06-10T07:41:59;8.63;;;4.85;;
67092;SDS011;54011;50.772;7.730;2023-06-10T07:44:26;7.10;;;4.43;;
67092;SDS011;54011;50.772;7.730;2023-06-10T07:46:51;7.15;;;4.15;;
67092;SDS011;54011;50.772;7.730;2023-06-10T07:49:16;9.52;;;4.60;;
67092;SDS011;54011;50.772;7.730;2023-06-10T07:51:42;9.93;;;4.07;;
67092;SDS011;54011;50.772;7.730;2023-06-10T07:54:09;7.28;;;4.65;;
67092;SDS011;54011;50.772;7.730;2023-06-10T07:56:34;11.07;;;5.15;;
67092;SDS011;54011;50.772;7.730;2023-06-10T07:59:01;12.77;;;4.82;;
67092;SDS011;54011;50.772;7.730;2023-06-10T08:01:34;8.05;;;4.68;;
67092;SDS011;54011;50.772;7.730;2023-06-10T08:04:01;9.40;;;4.53;;
67092;SDS011;54011;50.772;7.730;2023-06-10T08:06:26;7.78;;;4.50;;
67092;SDS011;54011;50.772;7.730;2023-06-10T08:08:52;8.38;;;4.75;;
67092;SDS011;54011;50.772;7.730;2023-06-10T08:11:17;10.43;;;4.82;;
67092;SDS011;54011;50.772;7.730;2023-06-10T08:13:43;9.93;;;4.95;;
67092;SDS011;54011;50.772;7.730;2023-06-10T08:16:08;7.53;;;4.40;;
67092;SDS011;54011;50.772;7.730;2023-06-10T08:18:33;8.32;;;4.20;;
67092;SDS011;54011;50.772;7.730;2023-06-10T08:20:59;8.15;;;4.60;;
67092;SDS011;54011;50.772;7.730;2023-06-10T08:23:25;10.63;;;4.47;;
67092;SDS011;54011;50.772;7.730;2023-06-10T08:25:50;9.35;;;4.72;;
67092;SDS011;54011;50.772;7.730;2023-06-10T08:28:17;7.65;;;4.32;;
67092;SDS011;54011;50.772;7.730;2023-06-10T08:30:43;7.32;;;4.20;;
67092;SDS011;54011;50.772;7.730;2023-06-10T08:33:09;10.93;;;4.63;;
67092;SDS011;54011;50.772;7.730;2023-06-10T08:35:34;8.88;;;4.10;;
67092;SDS011;54011;50.772;7.730;2023-06-10T08:38:00;10.45;;;4.60;;
67092;SDS011;54011;50.772;7.730;2023-06-10T08:40:26;8.65;;;4.70;;
67092;SDS011;54011;50.772;7.730;2023-06-10T08:42:54;9.65;;;4.57;;
67092;SDS011;54011;50.772;7.730;2023-06-10T08:45:30;6.97;;;4.38;;
67092;SDS011;54011;50.772;7.730;2023-06-10T08:47:57;8.77;;;4.50;;
67092;SDS011;54011;50.772;7.730;2023-06-10T08:50:23;8.18;;;4.18;;
67092;SDS011;54011;50.772;7.730;2023-06-10T08:52:50;13.90;;;4.70;;
67092;SDS011;54011;50.772;7.730;2023-06-10T08:55:19;7.47;;;4.27;;
67092;SDS011;54011;50.772;7.730;2023-06-10T08:57:51;10.15;;;4.70;;
67092;SDS011;54011;50.772;7.730;2023-06-10T09:00:17;13.20;;;4.25;;
67092;SDS011;54011;50.772;7.730;2023-06-10T09:02:43;12.48;;;4.50;;
67092;SDS011;54011;50.772;7.730;2023-06-10T09:05:09;9.80;;;4.22;;
67092;SDS011;54011;50.772;7.730;2023-06-10T09:07:36;7.00;;;4.15;;
67092;SDS011;54011;50.772;7.730;2023-06-10T09:10:02;8.18;;;4.15;;
67092;SDS011;54011;50.772;7.730;2023-06-10T09:12:30;9.88;;;4.30;;
67092;SDS011;54011;50.772;7.730;2023-06-10T09:14:55;12.50;;;4.88;;
67092;SDS011;54011;50.772;7.730;2023-06-10T09:17:22;9.18;;;4.60;;
67092;SDS011;54011;50.772;7.730;2023-06-10T09:19:47;11.57;;;4.05;;
67092;SDS011;54011;50.772;7.730;2023-06-10T09:22:14;10.13;;;5.57;;
67092;SDS011;54011;50.772;7.730;2023-06-10T09:24:39;6.55;;;4.32;;
67092;SDS011;54011;50.772;7.730;2023-06-10T09:27:06;6.72;;;4.35;;
67092;SDS011;54011;50.772;7.730;2023-06-10T09:29:52;8.10;;;4.13;;
67092;SDS011;54011;50.772;7.730;2023-06-10T09:32:18;8.90;;;4.00;;
67092;SDS011;54011;50.772;7.730;2023-06-10T09:34:45;8.93;;;3.67;;
67092;SDS011;54011;50.772;7.730;2023-06-10T09:37:11;8.90;;;3.95;;
67092;SDS011;54011;50.772;7.730;2023-06-10T09:39:39;8.65;;;4.32;;
67092;SDS011;54011;50.772;7.730;2023-06-10T09:42:15;9.07;;;4.07;;
67092;SDS011;54011;50.772;7.730;2023-06-10T09:44:42;6.90;;;4.20;;
67092;SDS011;54011;50.772;7.730;2023-06-10T09:47:19;10.50;;;4.00;;
67092;SDS011;54011;50.772;7.730;2023-06-10T09:49:47;9.50;;;4.15;;
67092;SDS011;54011;50.772;7.730;2023-06-10T09:52:12;7.57;;;3.90;;
67092;SDS011;54011;50.772;7.730;2023-06-10T09:54:38;5.97;;;4.07;;
67092;SDS011;54011;50.772;7.730;2023-06-10T09:57:08;7.75;;;4.20;;
67092;SDS011;54011;50.772;7.730;2023-06-10T09:59:36;11.13;;;4.18;;
67092;SDS011;54011;50.772;7.730;2023-06-10T10:02:03;14.27;;;4.28;;
67092;SDS011;54011;50.772;7.730;2023-06-10T10:04:30;6.70;;;3.90;;
67092;SDS011;54011;50.772;7.730;2023-06-10T10:06:56;6.47;;;4.03;;
67092;SDS011;54011;50.772;7.730;2023-06-10T10:09:21;6.28;;;3.60;;
67092;SDS011;54011;50.772;7.730;2023-06-10T10:11:47;8.02;;;3.60;;
67092;SDS011;54011;50.772;7.730;2023-06-10T10:14:14;7.50;;;3.80;;
67092;SDS011;54011;50.772;7.730;2023-06-10T10:16:44;8.00;;;4.03;;
67092;SDS011;54011;50.772;7.730;2023-06-10T10:19:23;9.63;;;4.05;;
67092;SDS011;54011;50.772;7.730;2023-06-10T10:21:53;6.97;;;3.50;;
67092;SDS011;54011;50.772;7.730;2023-06-10T10:24:24;6.82;;;3.95;;
67092;SDS011;54011;50.772;7.730;2023-06-10T10:26:56;8.85;;;3.88;;
67092;SDS011;54011;50.772;7.730;2023-06-10T10:29:29;6.18;;;3.78;;
67092;SDS011;54011;50.772;7.730;2023-06-10T10:31:56;8.43;;;3.83;;
67092;SDS011;54011;50.772;7.730;2023-06-10T10:34:32;10.70;;;4.35;;
67092;SDS011;54011;50.772;7.730;2023-06-10T10:37:02;6.30;;;3.70;;
67092;SDS011;54011;50.772;7.730;2023-06-10T10:39:28;5.93;;;3.80;;
67092;SDS011;54011;50.772;7.730;2023-06-10T10:41:55;7.63;;;3.60;;
67092;SDS011;54011;50.772;7.730;2023-06-10T10:44:21;5.55;;;3.22;;
67092;SDS011;54011;50.772;7.730;2023-06-10T10:46:49;11.27;;;3.72;;
67092;SDS011;54011;50.772;7.730;2023-06-10T10:49:15;8.95;;;4.00;;
67092;SDS011;54011;50.772;7.730;2023-06-10T10:51:59;7.88;;;3.70;;
67092;SDS011;54011;50.772;7.730;2023-06-10T10:54:35;8.30;;;3.60;;
67092;SDS011;54011;50.772;7.730;2023-06-10T11:02:16;10.40;;;3.40;;
67092;SDS011;54011;50.772;7.730;2023-06-10T11:05:02;9.48;;;3.53;;
67092;SDS011;54011;50.772;7.730;2023-06-10T11:07:30;7.22;;;3.45;;
67092;SDS011;54011;50.772;7.730;2023-06-10T11:10:00;7.43;;;3.50;;
67092;SDS011;54011;50.772;7.730;2023-06-10T11:15:10;9.73;;;3.53;;
67092;SDS011;54011;50.772;7.730;2023-06-10T11:31:38;7.85;;;3.70;;
67092;SDS011;54011;50.772;7.730;2023-06-10T11:34:06;10.45;;;3.42;;
67092;SDS011;54011;50.772;7.730;2023-06-10T11:36:40;8.02;;;3.33;;
67092;SDS011;54011;50.772;7.730;2023-06-10T11:39:07;6.75;;;3.28;;
67092;SDS011;54011;50.772;7.730;2023-06-10T11:41:35;4.93;;;3.13;;
67092;SDS011;54011;50.772;7.730;2023-06-10T11:44:11;6.50;;;3.00;;
67092;SDS011;54011;50.772;7.730;2023-06-10T11:46:38;6.53;;;3.50;;
67092;SDS011;54011;50.772;7.730;2023-06-10T11:49:05;7.47;;;3.80;;
67092;SDS011;54011;50.772;7.730;2023-06-10T11:51:35;5.85;;;3.50;;
67092;SDS011;54011;50.772;7.730;2023-06-10T11:54:03;6.60;;;3.85;;
67092;SDS011;54011;50.772;7.730;2023-06-10T11:56:29;6.88;;;3.30;;
67092;SDS011;54011;50.772;7.730;2023-06-10T11:58:57;8.13;;;3.60;;
67092;SDS011;54011;50.772;7.730;2023-06-10T12:01:24;6.82;;;3.25;;
67092;SDS011;54011;50.772;7.730;2023-06-10T12:04:01;6.28;;;3.33;;
67092;SDS011;54011;50.772;7.730;2023-06-10T12:06:42;8.70;;;3.70;;
67092;SDS011;54011;50.772;7.730;2023-06-10T12:09:17;6.43;;;3.35;;
67092;SDS011;54011;50.772;7.730;2023-06-10T12:11:44;6.05;;;3.50;;
67092;SDS011;54011;50.772;7.730;2023-06-10T12:14:10;8.27;;;3.63;;
67092;SDS011;54011;50.772;7.730;2023-06-10T12:16:37;10.70;;;3.38;;
67092;SDS011;54011;50.772;7.730;2023-06-10T12:19:03;6.88;;;3.50;;
67092;SDS011;54011;50.772;7.730;2023-06-10T12:21:31;10.00;;;3.40;;
67092;SDS011;54011;50.772;7.730;2023-06-10T12:24:01;8.10;;;3.08;;
67092;SDS011;54011;50.772;7.730;2023-06-10T12:26:37;5.90;;;3.20;;
67092;SDS011;54011;50.772;7.730;2023-06-10T12:32:02;7.20;;;3.30;;
67092;SDS011;54011;50.772;7.730;2023-06-10T12:34:34;5.25;;;3.00;;
67092;SDS011;54011;50.772;7.730;2023-06-10T12:37:02;7.18;;;3.53;;
67092;SDS011;54011;50.772;7.730;2023-06-10T12:39:29;9.20;;;3.38;;
67092;SDS011;54011;50.772;7.730;2023-06-10T12:41:56;7.70;;;3.75;;
67092;SDS011;54011;50.772;7.730;2023-06-10T12:44:30;6.78;;;3.80;;
67092;SDS011;54011;50.772;7.730;2023-06-10T12:46:59;8.88;;;3.33;;
67092;SDS011;54011;50.772;7.730;2023-06-10T12:49:26;9.68;;;3.40;;
67092;SDS011;54011;50.772;7.730;2023-06-10T12:51:51;7.68;;;3.33;;
67092;SDS011;54011;50.772;7.730;2023-06-10T12:54:17;6.95;;;2.97;;
67092;SDS011;54011;50.772;7.730;2023-06-10T12:56:43;6.10;;;3.00;;
67092;SDS011;54011;50.772;7.730;2023-06-10T12:59:08;10.25;;;3.35;;
67092;SDS011;54011;50.772;7.730;2023-06-10T13:01:33;5.18;;;3.20;;
67092;SDS011;54011;50.772;7.730;2023-06-10T13:03:59;7.18;;;3.20;;
67092;SDS011;54011;50.772;7.730;2023-06-10T13:06:25;5.93;;;2.92;;
67092;SDS011;54011;50.772;7.730;2023-06-10T13:08:51;5.55;;;2.95;;
67092;SDS011;54011;50.772;7.730;2023-06-10T13:11:17;6.18;;;3.85;;
67092;SDS011;54011;50.772;7.730;2023-06-10T13:13:43;17.10;;;3.67;;
67092;SDS011;54011;50.772;7.730;2023-06-10T13:16:09;9.77;;;3.30;;
67092;SDS011;54011;50.772;7.730;2023-06-10T13:18:34;8.68;;;3.40;;
67092;SDS011;54011;50.772;7.730;2023-06-10T13:21:05;10.65;;;3.38;;
67092;SDS011;54011;50.772;7.730;2023-06-10T13:23:32;6.88;;;3.60;;
67092;SDS011;54011;50.772;7.730;2023-06-10T13:25:59;7.22;;;3.20;;
67092;SDS011;54011;50.772;7.730;2023-06-10T13:28:25;9.15;;;3.17;;
67092;SDS011;54011;50.772;7.730;2023-06-10T13:30:50;6.93;;;3.28;;
67092;SDS011;54011;50.772;7.730;2023-06-10T13:33:16;5.93;;;3.15;;
67092;SDS011;54011;50.772;7.730;2023-06-10T13:35:41;7.07;;;3.35;;
67092;SDS011;54011;50.772;7.730;2023-06-10T13:38:07;5.10;;;3.15;;
67092;SDS011;54011;50.772;7.730;2023-06-10T13:40:32;5.40;;;2.92;;
67092;SDS011;54011;50.772;7.730;2023-06-10T13:42:59;12.93;;;4.07;;
67092;SDS011;54011;50.772;7.730;2023-06-10T13:45:25;6.28;;;3.83;;
67092;SDS011;54011;50.772;7.730;2023-06-10T13:47:51;8.82;;;4.10;;
67092;SDS011;54011;50.772;7.730;2023-06-10T13:50:17;8.02;;;5.20;;
67092;SDS011;54011;50.772;7.730;2023-06-10T13:52:42;8.75;;;3.45;;
67092;SDS011;54011;50.772;7.730;2023-06-10T13:55:09;10.48;;;3.80;;
67092;SDS011;54011;50.772;7.730;2023-06-10T13:57:35;9.75;;;5.00;;
67092;SDS011;54011;50.772;7.730;2023-06-10T14:00:01;7.15;;;3.47;;
67092;SDS011;54011;50.772;7.730;2023-06-10T14:02:29;6.80;;;4.00;;
67092;SDS011;54011;50.772;7.730;2023-06-10T14:04:55;6.93;;;3.90;;
67092;SDS011;54011;50.772;7.730;2023-06-10T14:07:20;8.95;;;3.45;;
67092;SDS011;54011;50.772;7.730;2023-06-10T14:09:46;12.20;;;3.97;;
67092;SDS011;54011;50.772;7.730;2023-06-10T14:12:11;13.07;;;3.85;;
67092;SDS011;54011;50.772;7.730;2023-06-10T14:14:37;8.23;;;4.10;;
67092;SDS011;54011;50.772;7.730;2023-06-10T14:17:03;10.48;;;4.40;;
67092;SDS011;54011;50.772;7.730;2023-06-10T14:19:30;8.80;;;4.10;;
67092;SDS011;54011;50.772;7.730;2023-06-10T14:21:57;15.02;;;10.05;;
67092;SDS011;54011;50.772;7.730;2023-06-10T14:24:22;17.42;;;10.57;;
67092;SDS011;54011;50.772;7.730;2023-06-10T14:26:47;9.80;;;3.58;;
67092;SDS011;54011;50.772;7.730;2023-06-10T14:29:13;12.25;;;6.85;;
67092;SDS011;54011;50.772;7.730;2023-06-10T14:31:39;13.52;;;9.73;;
67092;SDS011;54011;50.772;7.730;2023-06-10T14:34:05;15.57;;;6.63;;
67092;SDS011;54011;50.772;7.730;2023-06-10T14:36:33;14.40;;;7.38;;
67092;SDS011;54011;50.772;7.730;2023-06-10T14:38:59;6.07;;;3.50;;
67092;SDS011;54011;50.772;7.730;2023-06-10T14:41:24;5.97;;;3.78;;
67092;SDS011;54011;50.772;7.730;2023-06-10T14:43:51;8.68;;;5.00;;
67092;SDS011;54011;50.772;7.730;2023-06-10T14:46:17;6.28;;;4.00;;
67092;SDS011;54011;50.772;7.730;2023-06-10T14:48:43;7.63;;;3.72;;
67092;SDS011;54011;50.772;7.730;2023-06-10T14:51:08;9.18;;;3.33;;
67092;SDS011;54011;50.772;7.730;2023-06-10T14:53:34;7.03;;;3.53;;
67092;SDS011;54011;50.772;7.730;2023-06-10T14:56:00;7.20;;;3.50;;
67092;SDS011;54011;50.772;7.730;2023-06-10T14:58:25;6.75;;;3.25;;
67092;SDS011;54011;50.772;7.730;2023-06-10T15:00:51;7.72;;;3.30;;
67092;SDS011;54011;50.772;7.730;2023-06-10T15:03:17;6.72;;;3.40;;
67092;SDS011;54011;50.772;7.730;2023-06-10T15:05:43;9.75;;;3.40;;
67092;SDS011;54011;50.772;7.730;2023-06-10T15:08:10;5.72;;;3.38;;
67092;SDS011;54011;50.772;7.730;2023-06-10T15:10:36;5.90;;;3.10;;
67092;SDS011;54011;50.772;7.730;2023-06-10T15:13:03;6.30;;;3.30;;